sensor_id;sensor_type;location;lat;lon;timestamp;temperature;humidity
59067;DHT22;44854;50.838;4.438;2022-10-14T05:02:04;15.40;99.90
59067;DHT22;44854;50.838;4.438;2022-10-14T05:04:30;15.50;99.90
59067;DHT22;44854;50.838;4.438;2022-10-14T05:06:55;15.40;99.90
59067;DHT22;44854;50.838;4.438;2022-10-14T05:09:21;15.40;99.90
59067;DHT22;44854;50.838;4.438;2022-10-14T05:11:47;15.40;99.90
59067;DHT22;44854;50.838;4.438;2022-10-14T05:14:12;15.40;99.90
59067;DHT22;44854;50.838;4.438;2022-10-14T05:16:37;15.50;99.90
59067;DHT22;44854;50.838;4.438;2022-10-14T05:19:03;15.40;99.90
59067;DHT22;44854;50.838;4.438;2022-10-14T05:21:29;15.40;99.90
59067;DHT22;44854;50.838;4.438;2022-10-14T05:23:54;15.30;99.90
59067;DHT22;44854;50.838;4.438;2022-10-14T05:26:20;15.30;99.90
59067;DHT22;44854;50.838;4.438;2022-10-14T05:28:45;15.30;99.90
59067;DHT22;44854;50.838;4.438;2022-10-14T05:31:11;15.40;99.90
59067;DHT22;44854;50.838;4.438;2022-10-14T05:33:36;15.40;99.90
59067;DHT22;44854;50.838;4.438;2022-10-14T05:36:02;15.50;99.90
59067;DHT22;44854;50.838;4.438;2022-10-14T05:38:29;15.50;99.90
59067;DHT22;44854;50.838;4.438;2022-10-14T05:40:55;15.50;99.90
59067;DHT22;44854;50.838;4.438;2022-10-14T05:43:22;15.50;99.90
59067;DHT22;44854;50.838;4.438;2022-10-14T05:45:49;15.50;99.90
59067;DHT22;44854;50.838;4.438;2022-10-14T05:48:15;15.50;99.90
59067;DHT22;44854;50.838;4.438;2022-10-14T05:50:40;15.40;99.90
59067;DHT22;44854;50.838;4.438;2022-10-14T05:53:06;15.30;99.90
59067;DHT22;44854;50.838;4.438;2022-10-14T05:55:32;15.40;99.90
59067;DHT22;44854;50.838;4.438;2022-10-14T05:57:57;15.40;99.90
59067;DHT22;44854;50.838;4.438;2022-10-14T06:00:24;15.40;99.90
59067;DHT22;44854;50.838;4.438;2022-10-14T06:02:49;15.40;99.90
59067;DHT22;44854;50.838;4.438;2022-10-14T06:05:15;15.40;99.90
59067;DHT22;44854;50.838;4.438;2022-10-14T06:07:41;15.30;99.90
59067;DHT22;44854;50.838;4.438;2022-10-14T06:10:07;15.50;99.90
59067;DHT22;44854;50.838;4.438;2022-10-14T06:12:35;15.50;99.90
59067;DHT22;44854;50.838;4.438;2022-10-14T06:15:00;15.50;99.90
59067;DHT22;44854;50.838;4.438;2022-10-14T06:17:26;15.50;99.90
59067;DHT22;44854;50.838;4.438;2022-10-14T06:19:52;15.50;99.90
59067;DHT22;44854;50.838;4.438;2022-10-14T06:22:18;15.40;99.90
59067;DHT22;44854;50.838;4.438;2022-10-14T06:24:43;15.50;99.90
59067;DHT22;44854;50.838;4.438;2022-10-14T06:27:09;15.60;99.90
59067;DHT22;44854;50.838;4.438;2022-10-14T06:29:34;15.60;99.90
59067;DHT22;44854;50.838;4.438;2022-10-14T06:32:03;15.50;99.90
59067;DHT22;44854;50.838;4.438;2022-10-14T06:34:28;15.50;99.90
59067;DHT22;44854;50.838;4.438;2022-10-14T06:36:54;15.60;99.90
59067;DHT22;44854;50.838;4.438;2022-10-14T06:39:19;15.80;99.90
59067;DHT22;44854;50.838;4.438;2022-10-14T06:41:45;15.80;99.90
59067;DHT22;44854;50.838;4.438;2022-10-14T06:44:10;15.70;99.90
59067;DHT22;44854;50.838;4.438;2022-10-14T06:46:36;15.70;99.90
59067;DHT22;44854;50.838;4.438;2022-10-14T06:49:01;15.70;99.90
59067;DHT22;44854;50.838;4.438;2022-10-14T06:51:28;15.70;99.90
59067;DHT22;44854;50.838;4.438;2022-10-14T06:53:54;15.80;99.90
59067;DHT22;44854;50.838;4.438;2022-10-14T06:56:19;15.80;99.90
59067;DHT22;44854;50.838;4.438;2022-10-14T06:58:45;15.70;99.90
59067;DHT22;44854;50.838;4.438;2022-10-14T07:01:10;15.70;99.90
59067;DHT22;44854;50.838;4.438;2022-10-14T07:03:36;15.70;99.90
59067;DHT22;44854;50.838;4.438;2022-10-14T07:06:03;15.60;99.90
59067;DHT22;44854;50.838;4.438;2022-10-14T07:08:29;15.70;99.90
59067;DHT22;44854;50.838;4.438;2022-10-14T07:10:55;15.60;99.90
59067;DHT22;44854;50.838;4.438;2022-10-14T07:13:21;15.70;99.90
59067;DHT22;44854;50.838;4.438;2022-10-14T07:15:47;15.50;99.90
59067;DHT22;44854;50.838;4.438;2022-10-14T07:18:14;15.60;99.90
59067;DHT22;44854;50.838;4.438;2022-10-14T07:20:40;15.70;99.90
59067;DHT22;44854;50.838;4.438;2022-10-14T07:23:05;15.80;99.90
59067;DHT22;44854;50.838;4.438;2022-10-14T07:25:31;15.80;99.90
59067;DHT22;44854;50.838;4.438;2022-10-14T07:27:57;15.90;99.90
59067;DHT22;44854;50.838;4.438;2022-10-14T07:30:23;15.80;99.90
59067;DHT22;44854;50.838;4.438;2022-10-14T07:32:48;15.90;99.90
59067;DHT22;44854;50.838;4.438;2022-10-14T07:35:14;16.00;99.90
59067;DHT22;44854;50.838;4.438;2022-10-14T07:37:40;16.00;99.90
59067;DHT22;44854;50.838;4.438;2022-10-14T07:40:06;16.10;99.90
59067;DHT22;44854;50.838;4.438;2022-10-14T07:42:31;16.10;99.90
59067;DHT22;44854;50.838;4.438;2022-10-14T07:44:58;16.10;99.90
59067;DHT22;44854;50.838;4.438;2022-10-14T07:47:23;16.00;99.90
59067;DHT22;44854;50.838;4.438;2022-10-14T07:49:49;16.00;99.90
59067;DHT22;44854;50.838;4.438;2022-10-14T07:52:14;16.10;99.90
59067;DHT22;44854;50.838;4.438;2022-10-14T07:54:40;16.10;99.90
59067;DHT22;44854;50.838;4.438;2022-10-14T07:57:06;16.10;99.90
59067;DHT22;44854;50.838;4.438;2022-10-14T07:59:32;16.10;99.90
59067;DHT22;44854;50.838;4.438;2022-10-14T08:01:57;16.00;99.90
59067;DHT22;44854;50.838;4.438;2022-10-14T08:04:23;16.00;99.90
59067;DHT22;44854;50.838;4.438;2022-10-14T08:06:49;16.00;99.90
59067;DHT22;44854;50.838;4.438;2022-10-14T08:09:15;16.00;99.90
59067;DHT22;44854;50.838;4.438;2022-10-14T08:11:41;16.20;99.90
59067;DHT22;44854;50.838;4.438;2022-10-14T08:14:07;16.30;99.90
59067;DHT22;44854;50.838;4.438;2022-10-14T08:16:34;16.30;99.90
59067;DHT22;44854;50.838;4.438;2022-10-14T08:19:00;16.30;99.90
59067;DHT22;44854;50.838;4.438;2022-10-14T08:21:26;16.30;99.90
59067;DHT22;44854;50.838;4.438;2022-10-14T08:23:51;16.30;99.90
59067;DHT22;44854;50.838;4.438;2022-10-14T08:26:32;16.20;99.90
59067;DHT22;44854;50.838;4.438;2022-10-14T08:28:59;16.20;99.90
59067;DHT22;44854;50.838;4.438;2022-10-14T08:31:25;16.30;99.90
59067;DHT22;44854;50.838;4.438;2022-10-14T08:33:51;16.30;99.90
59067;DHT22;44854;50.838;4.438;2022-10-14T08:36:17;16.30;99.90
59067;DHT22;44854;50.838;4.438;2022-10-14T08:38:42;16.40;99.90
59067;DHT22;44854;50.838;4.438;2022-10-14T08:46:08;16.50;99.90
59067;DHT22;44854;50.838;4.438;2022-10-14T08:48:34;16.40;99.90
59067;DHT22;44854;50.838;4.438;2022-10-14T08:51:06;16.40;99.90
59067;DHT22;44854;50.838;4.438;2022-10-14T08:53:44;16.40;99.90
59067;DHT22;44854;50.838;4.438;2022-10-14T08:56:10;16.40;99.90
59067;DHT22;44854;50.838;4.438;2022-10-14T09:01:21;16.40;99.90
59067;DHT22;44854;50.838;4.438;2022-10-14T09:03:49;16.50;99.90
59067;DHT22;44854;50.838;4.438;2022-10-14T09:06:23;16.60;99.90
59067;DHT22;44854;50.838;4.438;2022-10-14T09:08:49;16.60;99.90
59067;DHT22;44854;50.838;4.438;2022-10-14T09:11:18;16.50;99.90
59067;DHT22;44854;50.838;4.438;2022-10-14T09:13:45;16.50;99.90
59067;DHT22;44854;50.838;4.438;2022-10-14T09:16:16;16.60;99.90
59067;DHT22;44854;50.838;4.438;2022-10-14T09:18:44;16.70;99.90
59067;DHT22;44854;50.838;4.438;2022-10-14T09:23:56;16.60;99.90
59067;DHT22;44854;50.838;4.438;2022-10-14T09:26:23;16.60;99.90
59067;DHT22;44854;50.838;4.438;2022-10-14T09:28:50;16.60;99.90
59067;DHT22;44854;50.838;4.438;2022-10-14T09:31:18;16.70;99.90
59067;DHT22;44854;50.838;4.438;2022-10-14T09:33:44;16.70;99.90
59067;DHT22;44854;50.838;4.438;2022-10-14T09:36:12;16.70;99.90
59067;DHT22;44854;50.838;4.438;2022-10-14T09:38:40;16.80;99.90
59067;DHT22;44854;50.838;4.438;2022-10-14T09:41:06;16.90;99.90
59067;DHT22;44854;50.838;4.438;2022-10-14T09:43:34;17.00;99.90
59067;DHT22;44854;50.838;4.438;2022-10-14T09:46:03;17.30;99.90
59067;DHT22;44854;50.838;4.438;2022-10-14T09:48:33;17.30;99.90
59067;DHT22;44854;50.838;4.438;2022-10-14T09:51:06;17.10;99.90
59067;DHT22;44854;50.838;4.438;2022-10-14T09:53:35;17.10;99.90
59067;DHT22;44854;50.838;4.438;2022-10-14T09:56:03;17.10;99.90
59067;DHT22;44854;50.838;4.438;2022-10-14T09:58:38;17.20;99.90
59067;DHT22;44854;50.838;4.438;2022-10-14T10:01:06;17.30;99.90
59067;DHT22;44854;50.838;4.438;2022-10-14T10:03:38;17.40;99.90
59067;DHT22;44854;50.838;4.438;2022-10-14T10:06:09;17.50;99.90
59067;DHT22;44854;50.838;4.438;2022-10-14T10:08:40;17.40;99.90
59067;DHT22;44854;50.838;4.438;2022-10-14T10:11:07;17.40;99.90
59067;DHT22;44854;50.838;4.438;2022-10-14T10:13:44;17.40;99.90
59067;DHT22;44854;50.838;4.438;2022-10-14T10:18:45;17.20;99.90
59067;DHT22;44854;50.838;4.438;2022-10-14T10:21:17;17.30;99.90
59067;DHT22;44854;50.838;4.438;2022-10-14T10:23:57;17.40;99.90
59067;DHT22;44854;50.838;4.438;2022-10-14T10:26:24;17.30;99.90
59067;DHT22;44854;50.838;4.438;2022-10-14T10:28:52;17.20;99.90
59067;DHT22;44854;50.838;4.438;2022-10-14T10:31:30;17.20;99.90
59067;DHT22;44854;50.838;4.438;2022-10-14T10:36:58;17.00;99.90
59067;DHT22;44854;50.838;4.438;2022-10-14T10:42:17;16.90;99.90
59067;DHT22;44854;50.838;4.438;2022-10-14T10:45:00;16.80;99.90
59067;DHT22;44854;50.838;4.438;2022-10-14T10:47:30;16.60;99.90
59067;DHT22;44854;50.838;4.438;2022-10-14T10:52:33;16.50;99.90
59067;DHT22;44854;50.838;4.438;2022-10-14T10:55:26;16.50;99.90
59067;DHT22;44854;50.838;4.438;2022-10-14T11:00:24;16.90;99.90
59067;DHT22;44854;50.838;4.438;2022-10-14T11:02:57;17.00;99.90
59067;DHT22;44854;50.838;4.438;2022-10-14T11:11:04;17.20;99.90
59067;DHT22;44854;50.838;4.438;2022-10-14T11:13:54;17.00;99.90
59067;DHT22;44854;50.838;4.438;2022-10-14T11:16:29;17.00;99.90
59067;DHT22;44854;50.838;4.438;2022-10-14T11:21:28;17.10;99.90
59067;DHT22;44854;50.838;4.438;2022-10-14T11:24:09;17.00;99.90
59067;DHT22;44854;50.838;4.438;2022-10-14T11:29:26;16.90;99.90
59067;DHT22;44854;50.838;4.438;2022-10-14T11:31:57;16.70;99.90
59067;DHT22;44854;50.838;4.438;2022-10-14T11:36:55;16.50;99.90
59067;DHT22;44854;50.838;4.438;2022-10-14T11:39:28;16.60;99.90
59067;DHT22;44854;50.838;4.438;2022-10-14T11:44:31;17.10;99.90
59067;DHT22;44854;50.838;4.438;2022-10-14T11:46:58;17.10;99.90
59067;DHT22;44854;50.838;4.438;2022-10-14T11:49:28;17.20;99.90
59067;DHT22;44854;50.838;4.438;2022-10-14T11:51:59;17.30;99.90
59067;DHT22;44854;50.838;4.438;2022-10-14T11:54:31;17.30;99.90
59067;DHT22;44854;50.838;4.438;2022-10-14T11:56:59;17.30;99.90
59067;DHT22;44854;50.838;4.438;2022-10-14T11:59:33;17.40;99.90
59067;DHT22;44854;50.838;4.438;2022-10-14T12:04:49;17.50;99.90
59067;DHT22;44854;50.838;4.438;2022-10-14T12:07:17;17.60;99.90
59067;DHT22;44854;50.838;4.438;2022-10-14T12:09:47;17.60;99.90
59067;DHT22;44854;50.838;4.438;2022-10-14T12:12:15;17.70;99.90
59067;DHT22;44854;50.838;4.438;2022-10-14T12:14:43;17.60;99.90
59067;DHT22;44854;50.838;4.438;2022-10-14T12:17:15;17.60;99.90
59067;DHT22;44854;50.838;4.438;2022-10-14T12:19:41;17.70;99.90
59067;DHT22;44854;50.838;4.438;2022-10-14T12:24:39;17.90;99.90
59067;DHT22;44854;50.838;4.438;2022-10-14T12:27:08;18.00;99.90
59067;DHT22;44854;50.838;4.438;2022-10-14T12:29:35;17.80;99.90
59067;DHT22;44854;50.838;4.438;2022-10-14T12:34:35;17.80;99.90
59067;DHT22;44854;50.838;4.438;2022-10-14T12:39:47;17.70;99.90
59067;DHT22;44854;50.838;4.438;2022-10-14T12:42:13;17.80;99.90
59067;DHT22;44854;50.838;4.438;2022-10-14T12:44:46;17.90;99.90
59067;DHT22;44854;50.838;4.438;2022-10-14T12:49:59;17.60;99.90
59067;DHT22;44854;50.838;4.438;2022-10-14T12:52:29;17.70;99.90
59067;DHT22;44854;50.838;4.438;2022-10-14T12:54:56;17.80;99.90
59067;DHT22;44854;50.838;4.438;2022-10-14T12:59:56;17.90;99.90
59067;DHT22;44854;50.838;4.438;2022-10-14T13:02:26;18.00;99.90
59067;DHT22;44854;50.838;4.438;2022-10-14T13:04:56;17.90;99.90
59067;DHT22;44854;50.838;4.438;2022-10-14T13:09:57;18.30;99.90
59067;DHT22;44854;50.838;4.438;2022-10-14T13:17:43;18.80;99.90
59067;DHT22;44854;50.838;4.438;2022-10-14T13:25:58;18.70;99.90
59067;DHT22;44854;50.838;4.438;2022-10-14T13:28:32;18.70;99.90
59067;DHT22;44854;50.838;4.438;2022-10-14T13:34:00;18.50;99.90
59067;DHT22;44854;50.838;4.438;2022-10-14T13:36:30;18.60;99.90
59067;DHT22;44854;50.838;4.438;2022-10-14T13:38:59;18.70;99.90
59067;DHT22;44854;50.838;4.438;2022-10-14T13:41:25;18.60;99.90
59067;DHT22;44854;50.838;4.438;2022-10-14T13:43:54;18.70;99.90
59067;DHT22;44854;50.838;4.438;2022-10-14T13:46:26;18.60;99.90
59067;DHT22;44854;50.838;4.438;2022-10-14T13:48:54;18.80;99.90
59067;DHT22;44854;50.838;4.438;2022-10-14T13:54:15;18.50;99.90
59067;DHT22;44854;50.838;4.438;2022-10-14T13:59:37;18.70;99.90
59067;DHT22;44854;50.838;4.438;2022-10-14T14:02:03;18.70;99.90
59067;DHT22;44854;50.838;4.438;2022-10-14T14:04:34;18.70;99.90
59067;DHT22;44854;50.838;4.438;2022-10-14T14:07:00;18.90;99.90
59067;DHT22;44854;50.838;4.438;2022-10-14T14:09:28;18.80;99.90
59067;DHT22;44854;50.838;4.438;2022-10-14T14:11:54;18.80;99.90
59067;DHT22;44854;50.838;4.438;2022-10-14T14:14:22;18.80;99.90
59067;DHT22;44854;50.838;4.438;2022-10-14T14:16:55;18.70;99.90
59067;DHT22;44854;50.838;4.438;2022-10-14T14:19:31;18.70;99.90
59067;DHT22;44854;50.838;4.438;2022-10-14T14:24:38;18.50;99.90
59067;DHT22;44854;50.838;4.438;2022-10-14T14:27:03;18.40;99.90
59067;DHT22;44854;50.838;4.438;2022-10-14T14:29:33;18.40;99.90
59067;DHT22;44854;50.838;4.438;2022-10-14T14:31:59;18.20;99.90
59067;DHT22;44854;50.838;4.438;2022-10-14T14:34:25;17.90;99.90
59067;DHT22;44854;50.838;4.438;2022-10-14T14:36:51;17.70;99.90
59067;DHT22;44854;50.838;4.438;2022-10-14T14:39:26;17.90;99.90
59067;DHT22;44854;50.838;4.438;2022-10-14T14:41:53;17.90;99.90
59067;DHT22;44854;50.838;4.438;2022-10-14T14:44:20;17.90;99.90
59067;DHT22;44854;50.838;4.438;2022-10-14T14:46:46;17.80;99.90
59067;DHT22;44854;50.838;4.438;2022-10-14T14:49:16;17.70;99.90
59067;DHT22;44854;50.838;4.438;2022-10-14T14:51:42;17.80;99.90
59067;DHT22;44854;50.838;4.438;2022-10-14T14:54:14;17.80;99.90
59067;DHT22;44854;50.838;4.438;2022-10-14T14:56:41;17.70;99.90
59067;DHT22;44854;50.838;4.438;2022-10-14T14:59:15;17.70;99.90
59067;DHT22;44854;50.838;4.438;2022-10-14T15:01:42;17.70;99.90
59067;DHT22;44854;50.838;4.438;2022-10-14T15:04:14;17.60;99.90
59067;DHT22;44854;50.838;4.438;2022-10-14T15:06:41;17.60;99.90
59067;DHT22;44854;50.838;4.438;2022-10-14T15:09:11;17.60;99.90
59067;DHT22;44854;50.838;4.438;2022-10-14T15:11:50;17.70;99.90
59067;DHT22;44854;50.838;4.438;2022-10-14T15:14:27;17.90;99.90
59067;DHT22;44854;50.838;4.438;2022-10-14T15:16:53;18.00;99.90
59067;DHT22;44854;50.838;4.438;2022-10-14T15:21:45;18.00;99.90
59067;DHT22;44854;50.838;4.438;2022-10-14T15:24:15;18.10;99.90
59067;DHT22;44854;50.838;4.438;2022-10-14T15:26:42;17.90;99.90
59067;DHT22;44854;50.838;4.438;2022-10-14T15:31:41;17.60;99.90
59067;DHT22;44854;50.838;4.438;2022-10-14T15:34:13;17.60;99.90
59067;DHT22;44854;50.838;4.438;2022-10-14T15:36:40;17.70;99.90
59067;DHT22;44854;50.838;4.438;2022-10-14T15:39:07;17.70;99.90
59067;DHT22;44854;50.838;4.438;2022-10-14T15:41:32;17.60;99.90
59067;DHT22;44854;50.838;4.438;2022-10-14T15:43:58;17.70;99.90
59067;DHT22;44854;50.838;4.438;2022-10-14T15:46:24;17.70;99.90
59067;DHT22;44854;50.838;4.438;2022-10-14T15:49:15;17.60;99.90
59067;DHT22;44854;50.838;4.438;2022-10-14T15:51:44;17.60;99.90
59067;DHT22;44854;50.838;4.438;2022-10-14T15:54:10;17.70;99.90
59067;DHT22;44854;50.838;4.438;2022-10-14T15:56:36;17.60;99.90
59067;DHT22;44854;50.838;4.438;2022-10-14T15:59:03;17.70;99.90
59067;DHT22;44854;50.838;4.438;2022-10-14T16:01:29;17.70;99.90
59067;DHT22;44854;50.838;4.438;2022-10-14T16:03:57;17.60;99.90
59067;DHT22;44854;50.838;4.438;2022-10-14T16:06:23;17.70;99.90
59067;DHT22;44854;50.838;4.438;2022-10-14T16:08:49;17.70;99.90
59067;DHT22;44854;50.838;4.438;2022-10-14T16:11:19;17.70;99.90
59067;DHT22;44854;50.838;4.438;2022-10-14T16:13:46;17.70;99.90
59067;DHT22;44854;50.838;4.438;2022-10-14T16:16:11;17.70;99.90
59067;DHT22;44854;50.838;4.438;2022-10-14T16:18:37;17.70;99.90
59067;DHT22;44854;50.838;4.438;2022-10-14T16:21:02;17.70;99.90
59067;DHT22;44854;50.838;4.438;2022-10-14T16:23:28;17.80;99.90
59067;DHT22;44854;50.838;4.438;2022-10-14T16:25:55;17.60;99.90
59067;DHT22;44854;50.838;4.438;2022-10-14T16:28:20;17.50;99.90
59067;DHT22;44854;50.838;4.438;2022-10-14T16:30:46;17.50;99.90
59067;DHT22;44854;50.838;4.438;2022-10-14T16:33:15;17.60;99.90
59067;DHT22;44854;50.838;4.438;2022-10-14T16:35:41;17.40;99.90
59067;DHT22;44854;50.838;4.438;2022-10-14T16:38:09;17.40;99.90
59067;DHT22;44854;50.838;4.438;2022-10-14T16:40:34;17.50;99.90
59067;DHT22;44854;50.838;4.438;2022-10-14T16:43:00;17.30;99.90
59067;DHT22;44854;50.838;4.438;2022-10-14T16:45:25;17.30;99.90
59067;DHT22;44854;50.838;4.438;2022-10-14T16:47:52;17.20;99.90
59067;DHT22;44854;50.838;4.438;2022-10-14T16:50:17;17.20;99.90
59067;DHT22;44854;50.838;4.438;2022-10-14T16:52:44;17.10;99.90
59067;DHT22;44854;50.838;4.438;2022-10-14T16:55:27;17.00;99.90
59067;DHT22;44854;50.838;4.438;2022-10-14T16:57:54;17.00;99.90
59067;DHT22;44854;50.838;4.438;2022-10-14T17:00:22;16.90;99.90
59067;DHT22;44854;50.838;4.438;2022-10-14T17:02:47;16.70;99.90
59067;DHT22;44854;50.838;4.438;2022-10-14T17:05:13;16.60;99.90
59067;DHT22;44854;50.838;4.438;2022-10-14T17:07:39;16.50;99.90
59067;DHT22;44854;50.838;4.438;2022-10-14T17:10:05;16.40;99.90
59067;DHT22;44854;50.838;4.438;2022-10-14T17:12:31;16.30;99.90
59067;DHT22;44854;50.838;4.438;2022-10-14T17:14:56;16.20;99.90
59067;DHT22;44854;50.838;4.438;2022-10-14T17:17:22;16.00;99.90
59067;DHT22;44854;50.838;4.438;2022-10-14T17:19:48;16.00;99.90
59067;DHT22;44854;50.838;4.438;2022-10-14T17:22:16;15.90;99.90
59067;DHT22;44854;50.838;4.438;2022-10-14T17:24:42;15.90;99.90
59067;DHT22;44854;50.838;4.438;2022-10-14T17:27:08;15.80;99.90
59067;DHT22;44854;50.838;4.438;2022-10-14T17:29:33;15.80;99.90
59067;DHT22;44854;50.838;4.438;2022-10-14T17:31:59;15.70;99.90
59067;DHT22;44854;50.838;4.438;2022-10-14T17:34:25;15.60;99.90
59067;DHT22;44854;50.838;4.438;2022-10-14T17:36:50;15.60;99.90
59067;DHT22;44854;50.838;4.438;2022-10-14T17:39:17;15.70;99.90
59067;DHT22;44854;50.838;4.438;2022-10-14T17:41:43;15.60;99.90
59067;DHT22;44854;50.838;4.438;2022-10-14T17:44:10;15.50;99.90
59067;DHT22;44854;50.838;4.438;2022-10-14T17:46:35;15.50;99.90
59067;DHT22;44854;50.838;4.438;2022-10-14T17:49:02;15.40;99.90
59067;DHT22;44854;50.838;4.438;2022-10-14T17:51:29;15.50;99.90
59067;DHT22;44854;50.838;4.438;2022-10-14T17:53:57;15.60;99.90
59067;DHT22;44854;50.838;4.438;2022-10-14T17:56:23;15.50;99.90
59067;DHT22;44854;50.838;4.438;2022-10-14T17:58:55;15.50;99.90
59067;DHT22;44854;50.838;4.438;2022-10-14T18:01:21;15.50;99.90
59067;DHT22;44854;50.838;4.438;2022-10-14T18:03:47;15.50;99.90
59067;DHT22;44854;50.838;4.438;2022-10-14T18:06:22;15.50;99.90
59067;DHT22;44854;50.838;4.438;2022-10-14T18:08:49;15.50;99.90
59067;DHT22;44854;50.838;4.438;2022-10-14T18:11:18;15.50;99.90
59067;DHT22;44854;50.838;4.438;2022-10-14T18:13:55;15.50;99.90
59067;DHT22;44854;50.838;4.438;2022-10-14T18:16:21;15.50;99.90
59067;DHT22;44854;50.838;4.438;2022-10-14T18:18:49;15.40;99.90
59067;DHT22;44854;50.838;4.438;2022-10-14T18:21:16;15.40;99.90
59067;DHT22;44854;50.838;4.438;2022-10-14T18:23:42;15.50;99.90
59067;DHT22;44854;50.838;4.438;2022-10-14T18:26:09;15.50;99.90
59067;DHT22;44854;50.838;4.438;2022-10-14T18:28:36;15.50;99.90
59067;DHT22;44854;50.838;4.438;2022-10-14T18:31:03;15.60;99.90
59067;DHT22;44854;50.838;4.438;2022-10-14T18:33:30;15.60;99.90
59067;DHT22;44854;50.838;4.438;2022-10-14T18:35:55;15.70;99.90
59067;DHT22;44854;50.838;4.438;2022-10-14T18:38:23;15.80;99.90
59067;DHT22;44854;50.838;4.438;2022-10-14T18:40:55;15.80;99.90
59067;DHT22;44854;50.838;4.438;2022-10-14T18:43:20;16.00;99.90
59067;DHT22;44854;50.838;4.438;2022-10-14T18:45:46;15.90;99.90
59067;DHT22;44854;50.838;4.438;2022-10-14T18:48:11;15.90;99.90
59067;DHT22;44854;50.838;4.438;2022-10-14T18:50:37;15.90;99.90
59067;DHT22;44854;50.838;4.438;2022-10-14T18:53:03;15.90;99.90
59067;DHT22;44854;50.838;4.438;2022-10-14T18:55:28;15.90;99.90
59067;DHT22;44854;50.838;4.438;2022-10-14T18:57:54;16.00;99.90
59067;DHT22;44854;50.838;4.438;2022-10-14T19:00:19;16.00;99.90
59067;DHT22;44854;50.838;4.438;2022-10-14T19:02:46;16.00;99.90
59067;DHT22;44854;50.838;4.438;2022-10-14T19:05:11;15.90;99.90
59067;DHT22;44854;50.838;4.438;2022-10-14T19:07:37;15.90;99.90
59067;DHT22;44854;50.838;4.438;2022-10-14T19:10:03;16.00;99.90
59067;DHT22;44854;50.838;4.438;2022-10-14T19:12:28;16.20;99.90
59067;DHT22;44854;50.838;4.438;2022-10-14T19:15:07;16.00;99.90
59067;DHT22;44854;50.838;4.438;2022-10-14T19:17:32;16.20;99.90
59067;DHT22;44854;50.838;4.438;2022-10-14T19:19:58;16.00;99.90
59067;DHT22;44854;50.838;4.438;2022-10-14T19:22:25;16.00;99.90
59067;DHT22;44854;50.838;4.438;2022-10-14T19:24:50;15.90;99.90
59067;DHT22;44854;50.838;4.438;2022-10-14T19:27:16;15.80;99.90
59067;DHT22;44854;50.838;4.438;2022-10-14T19:29:41;15.60;99.90
59067;DHT22;44854;50.838;4.438;2022-10-14T19:32:07;15.60;99.90
59067;DHT22;44854;50.838;4.438;2022-10-14T19:34:32;15.70;99.90
59067;DHT22;44854;50.838;4.438;2022-10-14T19:36:58;15.90;99.90
59067;DHT22;44854;50.838;4.438;2022-10-14T19:39:24;15.90;99.90
59067;DHT22;44854;50.838;4.438;2022-10-14T19:41:50;15.80;99.90
59067;DHT22;44854;50.838;4.438;2022-10-14T19:44:15;15.80;99.90
59067;DHT22;44854;50.838;4.438;2022-10-14T19:46:41;15.80;99.90
59067;DHT22;44854;50.838;4.438;2022-10-14T19:49:09;15.70;99.90
59067;DHT22;44854;50.838;4.438;2022-10-14T19:51:34;15.70;99.90
59067;DHT22;44854;50.838;4.438;2022-10-14T19:54:00;15.60;99.90
59067;DHT22;44854;50.838;4.438;2022-10-14T19:56:26;15.60;99.90
59067;DHT22;44854;50.838;4.438;2022-10-14T19:58:53;15.60;99.90
59067;DHT22;44854;50.838;4.438;2022-10-14T20:01:20;15.70;99.90
59067;DHT22;44854;50.838;4.438;2022-10-14T20:03:47;15.80;99.90
59067;DHT22;44854;50.838;4.438;2022-10-14T20:06:14;15.80;99.90
59067;DHT22;44854;50.838;4.438;2022-10-14T20:08:39;15.70;99.90
59067;DHT22;44854;50.838;4.438;2022-10-14T20:11:09;15.70;99.90
59067;DHT22;44854;50.838;4.438;2022-10-14T20:13:35;15.80;99.90
59067;DHT22;44854;50.838;4.438;2022-10-14T20:16:12;15.70;99.90
59067;DHT22;44854;50.838;4.438;2022-10-14T20:18:38;15.80;99.90
59067;DHT22;44854;50.838;4.438;2022-10-14T20:21:04;15.80;99.90
59067;DHT22;44854;50.838;4.438;2022-10-14T20:23:33;15.80;99.90
59067;DHT22;44854;50.838;4.438;2022-10-14T20:26:03;15.80;99.90
59067;DHT22;44854;50.838;4.438;2022-10-14T20:28:29;15.90;99.90
59067;DHT22;44854;50.838;4.438;2022-10-14T20:30:55;15.80;99.90
59067;DHT22;44854;50.838;4.438;2022-10-14T20:33:22;15.70;99.90
59067;DHT22;44854;50.838;4.438;2022-10-14T20:35:47;15.70;99.90
59067;DHT22;44854;50.838;4.438;2022-10-14T20:38:13;15.60;99.90
59067;DHT22;44854;50.838;4.438;2022-10-14T20:40:39;15.70;99.90
59067;DHT22;44854;50.838;4.438;2022-10-14T20:43:04;15.70;99.90
59067;DHT22;44854;50.838;4.438;2022-10-14T20:45:30;15.70;99.90
59067;DHT22;44854;50.838;4.438;2022-10-14T20:47:56;15.70;99.90
59067;DHT22;44854;50.838;4.438;2022-10-14T20:50:25;15.80;99.90
59067;DHT22;44854;50.838;4.438;2022-10-14T20:52:50;15.80;99.90
59067;DHT22;44854;50.838;4.438;2022-10-14T20:55:16;15.90;99.90
59067;DHT22;44854;50.838;4.438;2022-10-14T20:57:43;15.80;99.90
59067;DHT22;44854;50.838;4.438;2022-10-14T21:00:08;15.90;99.90
59067;DHT22;44854;50.838;4.438;2022-10-14T21:02:34;15.90;99.90
59067;DHT22;44854;50.838;4.438;2022-10-14T21:05:00;15.90;99.90
59067;DHT22;44854;50.838;4.438;2022-10-14T21:07:25;15.90;99.90
59067;DHT22;44854;50.838;4.438;2022-10-14T21:09:51;15.80;99.90
59067;DHT22;44854;50.838;4.438;2022-10-14T21:12:16;15.90;99.90
59067;DHT22;44854;50.838;4.438;2022-10-14T21:14:42;16.00;99.90
59067;DHT22;44854;50.838;4.438;2022-10-14T21:17:07;16.00;99.90
59067;DHT22;44854;50.838;4.438;2022-10-14T21:19:33;16.00;99.90
59067;DHT22;44854;50.838;4.438;2022-10-14T21:21:59;15.90;99.90
59067;DHT22;44854;50.838;4.438;2022-10-14T21:24:24;15.90;99.90
59067;DHT22;44854;50.838;4.438;2022-10-14T21:26:50;15.90;99.90
59067;DHT22;44854;50.838;4.438;2022-10-14T21:29:17;16.00;99.90
59067;DHT22;44854;50.838;4.438;2022-10-14T21:31:42;16.00;99.90
59067;DHT22;44854;50.838;4.438;2022-10-14T21:34:08;15.90;99.90
59067;DHT22;44854;50.838;4.438;2022-10-14T21:36:34;15.90;99.90
59067;DHT22;44854;50.838;4.438;2022-10-14T21:39:03;16.00;99.90
59067;DHT22;44854;50.838;4.438;2022-10-14T21:41:29;15.90;99.90
59067;DHT22;44854;50.838;4.438;2022-10-14T21:43:55;15.90;99.90
59067;DHT22;44854;50.838;4.438;2022-10-14T21:46:21;16.00;99.90
59067;DHT22;44854;50.838;4.438;2022-10-14T21:48:47;15.90;99.90
59067;DHT22;44854;50.838;4.438;2022-10-14T21:51:17;16.00;99.90
59067;DHT22;44854;50.838;4.438;2022-10-14T21:53:43;15.90;99.90
59067;DHT22;44854;50.838;4.438;2022-10-14T21:56:09;15.90;99.90
59067;DHT22;44854;50.838;4.438;2022-10-14T21:58:35;15.80;99.90
